sensor_id;sensor_type;location;lat;lon;timestamp;P1;durP1;ratioP1;P2;durP2;ratioP2
35891;SDS011;21993;42.672;23.296;2022-10-31T00:01:21;6.53;;;3.60;;
35891;SDS011;21993;42.672;23.296;2022-10-31T00:03:52;8.47;;;3.70;;
35891;SDS011;21993;42.672;23.296;2022-10-31T00:06:18;4.40;;;3.37;;
35891;SDS011;21993;42.672;23.296;2022-10-31T00:08:47;8.10;;;4.03;;
35891;SDS011;21993;42.672;23.296;2022-10-31T00:11:17;6.37;;;3.40;;
35891;SDS011;21993;42.672;23.296;2022-10-31T00:13:43;6.23;;;4.03;;
35891;SDS011;21993;42.672;23.296;2022-10-31T00:16:21;6.63;;;4.47;;
35891;SDS011;21993;42.672;23.296;2022-10-31T00:18:49;7.43;;;4.37;;
35891;SDS011;21993;42.672;23.296;2022-10-31T00:21:19;5.67;;;3.77;;
35891;SDS011;21993;42.672;23.296;2022-10-31T00:23:45;8.77;;;4.10;;
35891;SDS011;21993;42.672;23.296;2022-10-31T00:26:11;6.70;;;3.60;;
35891;SDS011;21993;42.672;23.296;2022-10-31T00:28:36;6.33;;;4.20;;
35891;SDS011;21993;42.672;23.296;2022-10-31T00:31:02;6.07;;;3.77;;
35891;SDS011;21993;42.672;23.296;2022-10-31T00:33:29;6.57;;;4.10;;
35891;SDS011;21993;42.672;23.296;2022-10-31T00:35:55;4.80;;;3.87;;
35891;SDS011;21993;42.672;23.296;2022-10-31T00:38:21;6.60;;;3.77;;
35891;SDS011;21993;42.672;23.296;2022-10-31T00:40:47;6.10;;;4.30;;
35891;SDS011;21993;42.672;23.296;2022-10-31T00:43:12;8.63;;;4.17;;
35891;SDS011;21993;42.672;23.296;2022-10-31T00:45:38;5.07;;;4.30;;
35891;SDS011;21993;42.672;23.296;2022-10-31T00:48:03;4.33;;;3.50;;
35891;SDS011;21993;42.672;23.296;2022-10-31T00:50:29;7.57;;;3.80;;
35891;SDS011;21993;42.672;23.296;2022-10-31T00:52:55;7.23;;;4.30;;
35891;SDS011;21993;42.672;23.296;2022-10-31T00:55:20;6.83;;;4.00;;
35891;SDS011;21993;42.672;23.296;2022-10-31T00:57:46;5.53;;;3.57;;
35891;SDS011;21993;42.672;23.296;2022-10-31T01:00:12;6.67;;;3.47;;
35891;SDS011;21993;42.672;23.296;2022-10-31T01:02:38;5.30;;;3.60;;
35891;SDS011;21993;42.672;23.296;2022-10-31T01:05:03;6.30;;;3.90;;
35891;SDS011;21993;42.672;23.296;2022-10-31T01:07:29;6.10;;;3.80;;
35891;SDS011;21993;42.672;23.296;2022-10-31T01:09:54;4.80;;;3.53;;
35891;SDS011;21993;42.672;23.296;2022-10-31T01:12:20;8.90;;;4.13;;
35891;SDS011;21993;42.672;23.296;2022-10-31T01:14:45;5.67;;;3.73;;
35891;SDS011;21993;42.672;23.296;2022-10-31T01:17:11;4.83;;;3.50;;
35891;SDS011;21993;42.672;23.296;2022-10-31T01:19:38;4.83;;;3.50;;
35891;SDS011;21993;42.672;23.296;2022-10-31T01:22:06;8.43;;;3.70;;
35891;SDS011;21993;42.672;23.296;2022-10-31T01:24:31;4.93;;;3.87;;
35891;SDS011;21993;42.672;23.296;2022-10-31T01:26:57;7.40;;;3.70;;
35891;SDS011;21993;42.672;23.296;2022-10-31T01:29:22;9.87;;;3.87;;
35891;SDS011;21993;42.672;23.296;2022-10-31T01:31:48;7.03;;;3.97;;
35891;SDS011;21993;42.672;23.296;2022-10-31T01:34:14;8.23;;;3.77;;
35891;SDS011;21993;42.672;23.296;2022-10-31T01:36:41;7.47;;;3.67;;
35891;SDS011;21993;42.672;23.296;2022-10-31T01:39:11;6.67;;;4.40;;
35891;SDS011;21993;42.672;23.296;2022-10-31T01:41:39;8.67;;;4.53;;
35891;SDS011;21993;42.672;23.296;2022-10-31T01:47:01;7.67;;;4.67;;
35891;SDS011;21993;42.672;23.296;2022-10-31T01:52:14;11.73;;;4.63;;
35891;SDS011;21993;42.672;23.296;2022-10-31T01:54:46;7.90;;;4.63;;
35891;SDS011;21993;42.672;23.296;2022-10-31T01:57:15;8.17;;;4.60;;
35891;SDS011;21993;42.672;23.296;2022-10-31T01:59:44;6.23;;;5.00;;
35891;SDS011;21993;42.672;23.296;2022-10-31T02:02:13;5.20;;;4.60;;
35891;SDS011;21993;42.672;23.296;2022-10-31T02:04:40;8.50;;;4.83;;
35891;SDS011;21993;42.672;23.296;2022-10-31T02:07:10;5.00;;;4.37;;
35891;SDS011;21993;42.672;23.296;2022-10-31T02:09:39;5.43;;;4.67;;
35891;SDS011;21993;42.672;23.296;2022-10-31T02:12:05;7.57;;;4.77;;
35891;SDS011;21993;42.672;23.296;2022-10-31T02:14:33;8.47;;;5.40;;
35891;SDS011;21993;42.672;23.296;2022-10-31T02:17:01;9.23;;;5.60;;
35891;SDS011;21993;42.672;23.296;2022-10-31T02:22:02;9.17;;;5.13;;
35891;SDS011;21993;42.672;23.296;2022-10-31T02:24:49;7.47;;;5.17;;
35891;SDS011;21993;42.672;23.296;2022-10-31T02:30:17;7.00;;;5.10;;
35891;SDS011;21993;42.672;23.296;2022-10-31T02:48:58;9.33;;;6.47;;
35891;SDS011;21993;42.672;23.296;2022-10-31T02:51:29;11.53;;;6.40;;
35891;SDS011;21993;42.672;23.296;2022-10-31T02:53:55;9.00;;;5.63;;
35891;SDS011;21993;42.672;23.296;2022-10-31T02:56:20;11.37;;;6.00;;
35891;SDS011;21993;42.672;23.296;2022-10-31T02:58:50;12.43;;;6.60;;
35891;SDS011;21993;42.672;23.296;2022-10-31T03:04:16;9.60;;;5.90;;
35891;SDS011;21993;42.672;23.296;2022-10-31T03:12:04;10.27;;;6.50;;
35891;SDS011;21993;42.672;23.296;2022-10-31T03:15:22;9.83;;;5.97;;
35891;SDS011;21993;42.672;23.296;2022-10-31T03:17:46;8.60;;;5.60;;
35891;SDS011;21993;42.672;23.296;2022-10-31T03:20:22;8.87;;;6.50;;
35891;SDS011;21993;42.672;23.296;2022-10-31T03:22:52;9.07;;;6.00;;
35891;SDS011;21993;42.672;23.296;2022-10-31T03:25:20;10.80;;;5.83;;
35891;SDS011;21993;42.672;23.296;2022-10-31T03:27:45;9.83;;;6.47;;
35891;SDS011;21993;42.672;23.296;2022-10-31T03:30:12;7.53;;;5.60;;
35891;SDS011;21993;42.672;23.296;2022-10-31T03:32:43;8.87;;;5.63;;
35891;SDS011;21993;42.672;23.296;2022-10-31T03:35:13;14.83;;;6.83;;
35891;SDS011;21993;42.672;23.296;2022-10-31T03:37:42;8.73;;;5.60;;
35891;SDS011;21993;42.672;23.296;2022-10-31T03:40:08;11.70;;;5.83;;
35891;SDS011;21993;42.672;23.296;2022-10-31T03:42:40;10.40;;;6.20;;
35891;SDS011;21993;42.672;23.296;2022-10-31T03:45:14;8.13;;;5.83;;
35891;SDS011;21993;42.672;23.296;2022-10-31T03:47:46;12.13;;;7.10;;
35891;SDS011;21993;42.672;23.296;2022-10-31T03:50:12;8.20;;;5.30;;
35891;SDS011;21993;42.672;23.296;2022-10-31T03:53:03;7.93;;;5.50;;
35891;SDS011;21993;42.672;23.296;2022-10-31T03:55:41;11.60;;;6.60;;
35891;SDS011;21993;42.672;23.296;2022-10-31T03:58:16;9.03;;;5.63;;
35891;SDS011;21993;42.672;23.296;2022-10-31T04:00:47;9.10;;;7.07;;
35891;SDS011;21993;42.672;23.296;2022-10-31T04:03:17;8.87;;;6.73;;
35891;SDS011;21993;42.672;23.296;2022-10-31T04:05:48;10.67;;;6.63;;
35891;SDS011;21993;42.672;23.296;2022-10-31T04:08:17;8.03;;;5.93;;
35891;SDS011;21993;42.672;23.296;2022-10-31T04:10:47;10.80;;;7.17;;
35891;SDS011;21993;42.672;23.296;2022-10-31T04:13:16;11.93;;;7.70;;
35891;SDS011;21993;42.672;23.296;2022-10-31T04:15:44;11.93;;;7.53;;
35891;SDS011;21993;42.672;23.296;2022-10-31T04:18:11;10.63;;;7.90;;
35891;SDS011;21993;42.672;23.296;2022-10-31T04:20:38;10.67;;;7.13;;
35891;SDS011;21993;42.672;23.296;2022-10-31T04:23:05;10.90;;;6.67;;
35891;SDS011;21993;42.672;23.296;2022-10-31T04:25:43;10.00;;;7.43;;
35891;SDS011;21993;42.672;23.296;2022-10-31T04:28:08;11.30;;;7.43;;
35891;SDS011;21993;42.672;23.296;2022-10-31T04:30:34;10.70;;;7.37;;
35891;SDS011;21993;42.672;23.296;2022-10-31T04:32:59;12.10;;;6.60;;
35891;SDS011;21993;42.672;23.296;2022-10-31T04:35:24;16.53;;;8.37;;
35891;SDS011;21993;42.672;23.296;2022-10-31T04:37:50;13.97;;;7.90;;
35891;SDS011;21993;42.672;23.296;2022-10-31T04:40:15;13.70;;;8.30;;
35891;SDS011;21993;42.672;23.296;2022-10-31T04:42:41;14.47;;;7.60;;
35891;SDS011;21993;42.672;23.296;2022-10-31T04:45:06;9.50;;;7.40;;
35891;SDS011;21993;42.672;23.296;2022-10-31T04:47:32;11.70;;;7.30;;
35891;SDS011;21993;42.672;23.296;2022-10-31T04:49:58;18.97;;;13.03;;
35891;SDS011;21993;42.672;23.296;2022-10-31T04:52:23;12.50;;;8.70;;
35891;SDS011;21993;42.672;23.296;2022-10-31T04:54:49;11.73;;;7.57;;
35891;SDS011;21993;42.672;23.296;2022-10-31T04:57:14;13.40;;;7.50;;
35891;SDS011;21993;42.672;23.296;2022-10-31T04:59:39;18.13;;;8.23;;
35891;SDS011;21993;42.672;23.296;2022-10-31T05:02:05;15.27;;;8.50;;
35891;SDS011;21993;42.672;23.296;2022-10-31T05:04:30;12.60;;;7.87;;
35891;SDS011;21993;42.672;23.296;2022-10-31T05:06:56;16.83;;;8.43;;
35891;SDS011;21993;42.672;23.296;2022-10-31T05:09:21;14.80;;;8.83;;
35891;SDS011;21993;42.672;23.296;2022-10-31T05:11:46;16.37;;;8.37;;
35891;SDS011;21993;42.672;23.296;2022-10-31T05:14:12;12.77;;;8.57;;
35891;SDS011;21993;42.672;23.296;2022-10-31T05:16:37;13.00;;;8.83;;
35891;SDS011;21993;42.672;23.296;2022-10-31T05:19:03;13.23;;;8.90;;
35891;SDS011;21993;42.672;23.296;2022-10-31T05:21:28;13.03;;;8.40;;
35891;SDS011;21993;42.672;23.296;2022-10-31T05:23:53;12.57;;;8.13;;
35891;SDS011;21993;42.672;23.296;2022-10-31T05:26:19;14.50;;;8.33;;
35891;SDS011;21993;42.672;23.296;2022-10-31T05:28:44;17.47;;;9.43;;
35891;SDS011;21993;42.672;23.296;2022-10-31T05:31:09;19.47;;;10.07;;
35891;SDS011;21993;42.672;23.296;2022-10-31T05:33:35;16.53;;;8.93;;
35891;SDS011;21993;42.672;23.296;2022-10-31T05:36:00;18.83;;;10.03;;
35891;SDS011;21993;42.672;23.296;2022-10-31T05:38:26;17.67;;;9.50;;
35891;SDS011;21993;42.672;23.296;2022-10-31T05:40:54;16.67;;;10.17;;
35891;SDS011;21993;42.672;23.296;2022-10-31T05:43:22;19.67;;;9.90;;
35891;SDS011;21993;42.672;23.296;2022-10-31T05:45:51;31.17;;;12.07;;
35891;SDS011;21993;42.672;23.296;2022-10-31T05:48:17;16.87;;;10.47;;
35891;SDS011;21993;42.672;23.296;2022-10-31T05:50:43;21.00;;;11.87;;
35891;SDS011;21993;42.672;23.296;2022-10-31T05:53:08;28.27;;;13.47;;
35891;SDS011;21993;42.672;23.296;2022-10-31T05:55:34;24.57;;;12.90;;
35891;SDS011;21993;42.672;23.296;2022-10-31T05:57:59;23.37;;;12.17;;
35891;SDS011;21993;42.672;23.296;2022-10-31T06:00:25;24.10;;;11.63;;
35891;SDS011;21993;42.672;23.296;2022-10-31T06:05:46;20.27;;;11.30;;
35891;SDS011;21993;42.672;23.296;2022-10-31T06:08:11;25.60;;;12.20;;
35891;SDS011;21993;42.672;23.296;2022-10-31T06:10:36;24.90;;;11.37;;
35891;SDS011;21993;42.672;23.296;2022-10-31T06:13:02;18.30;;;11.40;;
35891;SDS011;21993;42.672;23.296;2022-10-31T06:15:27;23.07;;;11.87;;
35891;SDS011;21993;42.672;23.296;2022-10-31T06:18:05;25.00;;;11.23;;
35891;SDS011;21993;42.672;23.296;2022-10-31T06:20:31;27.10;;;11.73;;
35891;SDS011;21993;42.672;23.296;2022-10-31T06:22:57;23.20;;;13.17;;
35891;SDS011;21993;42.672;23.296;2022-10-31T06:25:23;27.03;;;12.93;;
35891;SDS011;21993;42.672;23.296;2022-10-31T06:27:48;20.20;;;11.93;;
35891;SDS011;21993;42.672;23.296;2022-10-31T06:30:14;19.10;;;10.83;;
35891;SDS011;21993;42.672;23.296;2022-10-31T06:32:40;19.50;;;12.33;;
35891;SDS011;21993;42.672;23.296;2022-10-31T06:35:05;21.90;;;12.87;;
35891;SDS011;21993;42.672;23.296;2022-10-31T06:37:31;17.93;;;12.03;;
35891;SDS011;21993;42.672;23.296;2022-10-31T06:39:56;26.93;;;13.47;;
35891;SDS011;21993;42.672;23.296;2022-10-31T06:42:21;20.80;;;12.30;;
35891;SDS011;21993;42.672;23.296;2022-10-31T06:44:47;21.40;;;12.00;;
35891;SDS011;21993;42.672;23.296;2022-10-31T06:47:12;20.50;;;12.20;;
35891;SDS011;21993;42.672;23.296;2022-10-31T06:49:38;20.60;;;12.47;;
35891;SDS011;21993;42.672;23.296;2022-10-31T06:52:03;20.63;;;11.93;;
35891;SDS011;21993;42.672;23.296;2022-10-31T06:54:30;19.20;;;12.07;;
35891;SDS011;21993;42.672;23.296;2022-10-31T06:56:55;25.63;;;12.83;;
35891;SDS011;21993;42.672;23.296;2022-10-31T06:59:21;19.13;;;12.27;;
35891;SDS011;21993;42.672;23.296;2022-10-31T07:01:46;19.60;;;12.70;;
35891;SDS011;21993;42.672;23.296;2022-10-31T07:04:12;22.07;;;12.27;;
35891;SDS011;21993;42.672;23.296;2022-10-31T07:06:37;19.17;;;11.43;;
35891;SDS011;21993;42.672;23.296;2022-10-31T07:09:03;20.70;;;12.93;;
35891;SDS011;21993;42.672;23.296;2022-10-31T07:11:29;19.60;;;12.23;;
35891;SDS011;21993;42.672;23.296;2022-10-31T07:13:54;22.57;;;13.70;;
35891;SDS011;21993;42.672;23.296;2022-10-31T07:16:24;21.90;;;12.37;;
35891;SDS011;21993;42.672;23.296;2022-10-31T07:18:49;22.97;;;13.17;;
35891;SDS011;21993;42.672;23.296;2022-10-31T07:21:15;26.57;;;13.93;;
35891;SDS011;21993;42.672;23.296;2022-10-31T07:23:40;20.93;;;13.80;;
35891;SDS011;21993;42.672;23.296;2022-10-31T07:26:07;20.83;;;12.80;;
35891;SDS011;21993;42.672;23.296;2022-10-31T07:28:35;19.90;;;13.10;;
35891;SDS011;21993;42.672;23.296;2022-10-31T07:31:00;21.20;;;12.90;;
35891;SDS011;21993;42.672;23.296;2022-10-31T07:33:26;22.80;;;12.80;;
35891;SDS011;21993;42.672;23.296;2022-10-31T07:35:51;25.47;;;13.43;;
35891;SDS011;21993;42.672;23.296;2022-10-31T07:38:17;19.23;;;12.50;;
35891;SDS011;21993;42.672;23.296;2022-10-31T07:40:48;18.93;;;12.67;;
35891;SDS011;21993;42.672;23.296;2022-10-31T07:43:16;27.73;;;13.73;;
35891;SDS011;21993;42.672;23.296;2022-10-31T07:45:42;25.57;;;13.03;;
35891;SDS011;21993;42.672;23.296;2022-10-31T07:48:07;23.47;;;14.00;;
35891;SDS011;21993;42.672;23.296;2022-10-31T07:50:33;19.13;;;13.47;;
35891;SDS011;21993;42.672;23.296;2022-10-31T07:55:28;16.03;;;11.90;;
35891;SDS011;21993;42.672;23.296;2022-10-31T07:57:57;26.97;;;14.80;;
35891;SDS011;21993;42.672;23.296;2022-10-31T08:00:24;21.03;;;13.20;;
35891;SDS011;21993;42.672;23.296;2022-10-31T08:05:34;15.60;;;11.93;;
35891;SDS011;21993;42.672;23.296;2022-10-31T08:08:00;18.00;;;12.70;;
35891;SDS011;21993;42.672;23.296;2022-10-31T08:10:27;23.87;;;14.80;;
35891;SDS011;21993;42.672;23.296;2022-10-31T08:13:03;22.00;;;14.10;;
35891;SDS011;21993;42.672;23.296;2022-10-31T08:15:30;29.97;;;14.87;;
35891;SDS011;21993;42.672;23.296;2022-10-31T08:17:56;20.90;;;12.97;;
35891;SDS011;21993;42.672;23.296;2022-10-31T08:20:21;20.80;;;12.63;;
35891;SDS011;21993;42.672;23.296;2022-10-31T08:22:54;20.83;;;12.87;;
35891;SDS011;21993;42.672;23.296;2022-10-31T08:25:21;18.30;;;12.47;;
35891;SDS011;21993;42.672;23.296;2022-10-31T08:27:51;19.20;;;12.13;;
35891;SDS011;21993;42.672;23.296;2022-10-31T08:30:18;22.57;;;12.83;;
35891;SDS011;21993;42.672;23.296;2022-10-31T08:32:44;20.90;;;12.67;;
35891;SDS011;21993;42.672;23.296;2022-10-31T08:35:10;20.77;;;12.30;;
35891;SDS011;21993;42.672;23.296;2022-10-31T08:37:36;17.53;;;12.37;;
35891;SDS011;21993;42.672;23.296;2022-10-31T08:40:01;18.23;;;12.63;;
35891;SDS011;21993;42.672;23.296;2022-10-31T08:42:27;20.37;;;12.40;;
35891;SDS011;21993;42.672;23.296;2022-10-31T08:44:52;19.33;;;12.83;;
35891;SDS011;21993;42.672;23.296;2022-10-31T08:47:18;20.73;;;12.63;;
35891;SDS011;21993;42.672;23.296;2022-10-31T08:49:43;25.83;;;12.83;;
35891;SDS011;21993;42.672;23.296;2022-10-31T08:52:08;22.27;;;12.37;;
35891;SDS011;21993;42.672;23.296;2022-10-31T08:54:34;16.30;;;11.40;;
35891;SDS011;21993;42.672;23.296;2022-10-31T08:56:59;15.57;;;10.77;;
35891;SDS011;21993;42.672;23.296;2022-10-31T08:59:25;14.33;;;10.13;;
35891;SDS011;21993;42.672;23.296;2022-10-31T09:01:50;19.17;;;11.40;;
35891;SDS011;21993;42.672;23.296;2022-10-31T09:04:15;16.07;;;9.70;;
35891;SDS011;21993;42.672;23.296;2022-10-31T09:06:41;20.47;;;10.23;;
35891;SDS011;21993;42.672;23.296;2022-10-31T09:09:06;14.23;;;10.13;;
35891;SDS011;21993;42.672;23.296;2022-10-31T09:11:32;15.80;;;8.57;;
35891;SDS011;21993;42.672;23.296;2022-10-31T09:13:57;13.63;;;8.53;;
35891;SDS011;21993;42.672;23.296;2022-10-31T09:16:23;14.57;;;8.83;;
35891;SDS011;21993;42.672;23.296;2022-10-31T09:19:09;12.50;;;9.57;;
35891;SDS011;21993;42.672;23.296;2022-10-31T09:22:20;18.43;;;9.90;;
35891;SDS011;21993;42.672;23.296;2022-10-31T09:24:52;14.03;;;9.43;;
35891;SDS011;21993;42.672;23.296;2022-10-31T09:30:57;15.60;;;9.53;;
35891;SDS011;21993;42.672;23.296;2022-10-31T09:33:47;16.47;;;9.83;;
35891;SDS011;21993;42.672;23.296;2022-10-31T09:36:21;13.23;;;9.00;;
35891;SDS011;21993;42.672;23.296;2022-10-31T09:39:12;14.93;;;9.17;;
35891;SDS011;21993;42.672;23.296;2022-10-31T09:44:33;83.47;;;15.10;;
35891;SDS011;21993;42.672;23.296;2022-10-31T09:47:10;67.13;;;13.57;;
35891;SDS011;21993;42.672;23.296;2022-10-31T09:49:57;98.73;;;16.60;;
35891;SDS011;21993;42.672;23.296;2022-10-31T09:52:31;24.97;;;10.90;;
35891;SDS011;21993;42.672;23.296;2022-10-31T09:55:03;12.53;;;8.23;;
35891;SDS011;21993;42.672;23.296;2022-10-31T09:58:23;10.27;;;7.67;;
35891;SDS011;21993;42.672;23.296;2022-10-31T10:01:02;16.27;;;8.07;;
35891;SDS011;21993;42.672;23.296;2022-10-31T10:07:40;11.97;;;7.00;;
35891;SDS011;21993;42.672;23.296;2022-10-31T10:29:44;10.67;;;5.23;;
35891;SDS011;21993;42.672;23.296;2022-10-31T10:35:33;6.10;;;5.00;;
35891;SDS011;21993;42.672;23.296;2022-10-31T10:41:21;9.83;;;4.80;;
35891;SDS011;21993;42.672;23.296;2022-10-31T10:43:49;6.83;;;4.30;;
35891;SDS011;21993;42.672;23.296;2022-10-31T10:46:19;11.67;;;4.40;;
35891;SDS011;21993;42.672;23.296;2022-10-31T10:49:12;7.63;;;4.40;;
35891;SDS011;21993;42.672;23.296;2022-10-31T11:00:20;9.03;;;5.30;;
35891;SDS011;21993;42.672;23.296;2022-10-31T11:03:03;6.20;;;4.10;;
35891;SDS011;21993;42.672;23.296;2022-10-31T11:08:28;9.30;;;4.27;;
35891;SDS011;21993;42.672;23.296;2022-10-31T11:11:09;6.90;;;3.50;;
35891;SDS011;21993;42.672;23.296;2022-10-31T11:14:05;7.97;;;3.07;;
35891;SDS011;21993;42.672;23.296;2022-10-31T11:22:42;6.87;;;3.47;;
35891;SDS011;21993;42.672;23.296;2022-10-31T11:25:24;9.30;;;3.53;;
35891;SDS011;21993;42.672;23.296;2022-10-31T11:30:59;7.70;;;4.40;;
35891;SDS011;21993;42.672;23.296;2022-10-31T11:33:30;5.00;;;3.63;;
35891;SDS011;21993;42.672;23.296;2022-10-31T11:36:03;7.90;;;4.70;;
35891;SDS011;21993;42.672;23.296;2022-10-31T11:38:46;10.03;;;4.70;;
35891;SDS011;21993;42.672;23.296;2022-10-31T11:41:25;6.60;;;4.47;;
35891;SDS011;21993;42.672;23.296;2022-10-31T11:44:09;9.27;;;4.70;;
35891;SDS011;21993;42.672;23.296;2022-10-31T11:46:37;5.80;;;4.00;;
35891;SDS011;21993;42.672;23.296;2022-10-31T11:49:05;8.27;;;4.60;;
35891;SDS011;21993;42.672;23.296;2022-10-31T11:51:37;10.57;;;4.30;;
35891;SDS011;21993;42.672;23.296;2022-10-31T11:54:03;10.87;;;4.50;;
35891;SDS011;21993;42.672;23.296;2022-10-31T11:56:39;7.87;;;4.00;;
35891;SDS011;21993;42.672;23.296;2022-10-31T11:59:14;8.97;;;3.83;;
35891;SDS011;21993;42.672;23.296;2022-10-31T12:01:46;7.27;;;4.57;;
35891;SDS011;21993;42.672;23.296;2022-10-31T12:04:13;7.13;;;4.57;;
35891;SDS011;21993;42.672;23.296;2022-10-31T12:06:39;8.33;;;5.10;;
35891;SDS011;21993;42.672;23.296;2022-10-31T12:09:27;6.40;;;4.23;;
35891;SDS011;21993;42.672;23.296;2022-10-31T12:12:07;9.27;;;5.00;;
35891;SDS011;21993;42.672;23.296;2022-10-31T12:17:50;9.63;;;4.53;;
35891;SDS011;21993;42.672;23.296;2022-10-31T12:29:14;11.07;;;4.70;;
35891;SDS011;21993;42.672;23.296;2022-10-31T12:40:28;13.53;;;4.10;;
35891;SDS011;21993;42.672;23.296;2022-10-31T12:51:36;8.80;;;4.07;;
35891;SDS011;21993;42.672;23.296;2022-10-31T12:57:05;7.63;;;4.33;;
35891;SDS011;21993;42.672;23.296;2022-10-31T12:59:45;13.93;;;5.10;;
35891;SDS011;21993;42.672;23.296;2022-10-31T13:04:47;13.37;;;5.07;;
35891;SDS011;21993;42.672;23.296;2022-10-31T13:07:24;154.27;;;23.47;;
35891;SDS011;21993;42.672;23.296;2022-10-31T13:09:54;19.87;;;6.63;;
35891;SDS011;21993;42.672;23.296;2022-10-31T13:12:26;38.63;;;10.27;;
35891;SDS011;21993;42.672;23.296;2022-10-31T13:14:55;15.10;;;5.43;;
35891;SDS011;21993;42.672;23.296;2022-10-31T13:19:49;7.57;;;4.67;;
35891;SDS011;21993;42.672;23.296;2022-10-31T13:22:19;10.53;;;4.77;;
35891;SDS011;21993;42.672;23.296;2022-10-31T13:27:27;11.67;;;4.73;;
35891;SDS011;21993;42.672;23.296;2022-10-31T13:30:06;9.30;;;4.60;;
35891;SDS011;21993;42.672;23.296;2022-10-31T13:38:02;13.80;;;5.13;;
35891;SDS011;21993;42.672;23.296;2022-10-31T13:46:25;8.87;;;4.90;;
35891;SDS011;21993;42.672;23.296;2022-10-31T13:49:03;11.23;;;4.30;;
35891;SDS011;21993;42.672;23.296;2022-10-31T13:51:33;6.53;;;3.83;;
35891;SDS011;21993;42.672;23.296;2022-10-31T13:54:01;12.80;;;4.97;;
35891;SDS011;21993;42.672;23.296;2022-10-31T13:56:50;10.83;;;4.13;;
35891;SDS011;21993;42.672;23.296;2022-10-31T14:01:53;10.43;;;4.00;;
35891;SDS011;21993;42.672;23.296;2022-10-31T14:07:10;8.13;;;4.07;;
35891;SDS011;21993;42.672;23.296;2022-10-31T14:12:34;7.90;;;3.90;;
35891;SDS011;21993;42.672;23.296;2022-10-31T14:15:22;6.87;;;3.97;;
35891;SDS011;21993;42.672;23.296;2022-10-31T14:17:52;14.93;;;4.33;;
35891;SDS011;21993;42.672;23.296;2022-10-31T14:20:59;6.27;;;3.77;;
35891;SDS011;21993;42.672;23.296;2022-10-31T14:28:39;11.90;;;3.93;;
35891;SDS011;21993;42.672;23.296;2022-10-31T14:31:21;8.87;;;3.97;;
35891;SDS011;21993;42.672;23.296;2022-10-31T14:39:38;9.47;;;3.80;;
35891;SDS011;21993;42.672;23.296;2022-10-31T14:45:06;11.33;;;4.53;;
35891;SDS011;21993;42.672;23.296;2022-10-31T14:50:52;13.50;;;4.80;;
35891;SDS011;21993;42.672;23.296;2022-10-31T14:53:45;10.73;;;4.90;;
35891;SDS011;21993;42.672;23.296;2022-10-31T14:56:14;17.20;;;5.70;;
35891;SDS011;21993;42.672;23.296;2022-10-31T14:58:46;16.20;;;5.57;;
35891;SDS011;21993;42.672;23.296;2022-10-31T15:01:26;14.60;;;5.23;;
35891;SDS011;21993;42.672;23.296;2022-10-31T15:04:05;12.77;;;5.57;;
35891;SDS011;21993;42.672;23.296;2022-10-31T15:06:42;14.60;;;6.33;;
35891;SDS011;21993;42.672;23.296;2022-10-31T15:09:26;16.33;;;6.07;;
35891;SDS011;21993;42.672;23.296;2022-10-31T15:11:53;25.23;;;7.50;;
35891;SDS011;21993;42.672;23.296;2022-10-31T15:14:30;18.63;;;6.73;;
35891;SDS011;21993;42.672;23.296;2022-10-31T15:17:03;11.83;;;5.57;;
35891;SDS011;21993;42.672;23.296;2022-10-31T15:19:32;15.57;;;5.50;;
35891;SDS011;21993;42.672;23.296;2022-10-31T15:22:02;14.63;;;5.80;;
35891;SDS011;21993;42.672;23.296;2022-10-31T15:24:35;20.00;;;7.33;;
35891;SDS011;21993;42.672;23.296;2022-10-31T15:27:03;17.00;;;6.67;;
35891;SDS011;21993;42.672;23.296;2022-10-31T15:29:30;16.10;;;6.00;;
35891;SDS011;21993;42.672;23.296;2022-10-31T15:32:00;27.43;;;7.00;;
35891;SDS011;21993;42.672;23.296;2022-10-31T15:34:41;16.30;;;7.20;;
35891;SDS011;21993;42.672;23.296;2022-10-31T15:37:18;17.33;;;6.07;;
35891;SDS011;21993;42.672;23.296;2022-10-31T15:39:46;14.57;;;7.00;;
35891;SDS011;21993;42.672;23.296;2022-10-31T15:42:34;17.17;;;6.90;;
35891;SDS011;21993;42.672;23.296;2022-10-31T15:47:36;20.33;;;6.27;;
35891;SDS011;21993;42.672;23.296;2022-10-31T15:50:02;19.03;;;6.07;;
35891;SDS011;21993;42.672;23.296;2022-10-31T15:52:41;16.13;;;6.70;;
35891;SDS011;21993;42.672;23.296;2022-10-31T15:57:39;16.57;;;7.77;;
35891;SDS011;21993;42.672;23.296;2022-10-31T16:03:04;19.33;;;7.73;;
35891;SDS011;21993;42.672;23.296;2022-10-31T16:05:36;17.23;;;8.33;;
35891;SDS011;21993;42.672;23.296;2022-10-31T16:08:30;16.97;;;6.83;;
35891;SDS011;21993;42.672;23.296;2022-10-31T16:13:36;17.43;;;7.50;;
35891;SDS011;21993;42.672;23.296;2022-10-31T16:16:12;22.33;;;7.07;;
35891;SDS011;21993;42.672;23.296;2022-10-31T16:18:41;14.63;;;6.87;;
35891;SDS011;21993;42.672;23.296;2022-10-31T16:21:07;13.03;;;6.60;;
35891;SDS011;21993;42.672;23.296;2022-10-31T16:23:34;15.23;;;7.33;;
35891;SDS011;21993;42.672;23.296;2022-10-31T16:26:07;15.63;;;6.73;;
35891;SDS011;21993;42.672;23.296;2022-10-31T16:28:33;14.13;;;7.67;;
35891;SDS011;21993;42.672;23.296;2022-10-31T16:31:00;25.67;;;8.50;;
35891;SDS011;21993;42.672;23.296;2022-10-31T16:33:32;20.93;;;7.60;;
35891;SDS011;21993;42.672;23.296;2022-10-31T16:38:53;28.30;;;9.00;;
35891;SDS011;21993;42.672;23.296;2022-10-31T16:41:19;18.13;;;8.83;;
35891;SDS011;21993;42.672;23.296;2022-10-31T16:43:48;17.90;;;8.10;;
35891;SDS011;21993;42.672;23.296;2022-10-31T16:46:14;24.67;;;10.67;;
35891;SDS011;21993;42.672;23.296;2022-10-31T16:48:42;21.37;;;8.20;;
35891;SDS011;21993;42.672;23.296;2022-10-31T16:51:07;21.27;;;9.27;;
35891;SDS011;21993;42.672;23.296;2022-10-31T16:53:33;23.33;;;9.73;;
35891;SDS011;21993;42.672;23.296;2022-10-31T16:55:58;16.00;;;7.97;;
35891;SDS011;21993;42.672;23.296;2022-10-31T16:58:29;20.30;;;8.63;;
35891;SDS011;21993;42.672;23.296;2022-10-31T17:00:58;25.33;;;10.40;;
35891;SDS011;21993;42.672;23.296;2022-10-31T17:03:24;29.83;;;12.30;;
35891;SDS011;21993;42.672;23.296;2022-10-31T17:05:50;36.57;;;15.03;;
35891;SDS011;21993;42.672;23.296;2022-10-31T17:08:16;33.27;;;14.30;;
35891;SDS011;21993;42.672;23.296;2022-10-31T17:10:42;35.53;;;14.07;;
35891;SDS011;21993;42.672;23.296;2022-10-31T17:13:12;32.67;;;14.13;;
35891;SDS011;21993;42.672;23.296;2022-10-31T17:15:52;31.27;;;14.27;;
35891;SDS011;21993;42.672;23.296;2022-10-31T17:18:41;31.50;;;11.83;;
35891;SDS011;21993;42.672;23.296;2022-10-31T17:21:14;25.23;;;12.20;;
35891;SDS011;21993;42.672;23.296;2022-10-31T17:23:49;39.50;;;13.97;;
35891;SDS011;21993;42.672;23.296;2022-10-31T17:26:21;29.70;;;11.83;;
35891;SDS011;21993;42.672;23.296;2022-10-31T17:29:39;30.03;;;11.80;;
35891;SDS011;21993;42.672;23.296;2022-10-31T17:32:24;29.27;;;12.40;;
35891;SDS011;21993;42.672;23.296;2022-10-31T17:34:59;29.37;;;13.40;;
35891;SDS011;21993;42.672;23.296;2022-10-31T17:40:50;26.83;;;10.87;;
35891;SDS011;21993;42.672;23.296;2022-10-31T17:43:47;23.27;;;11.73;;
35891;SDS011;21993;42.672;23.296;2022-10-31T17:46:49;29.57;;;11.17;;
35891;SDS011;21993;42.672;23.296;2022-10-31T17:49:32;19.87;;;10.20;;
35891;SDS011;21993;42.672;23.296;2022-10-31T17:52:23;19.90;;;9.80;;
35891;SDS011;21993;42.672;23.296;2022-10-31T17:55:19;21.03;;;10.70;;